Time;durP1;ratioP1;P1;durP2;ratioP2;P2;SDS_P1;SDS_P2;PMS_P1;PMS_P2;Temp;Humidity;BMP_temperature;BMP_pressure;BME280_temperature;BME280_humidity;BME280_pressure;Samples;Min_cycle;Max_cycle;Signal;HPM_P1;HPM_P2
2023/01/24 00:00:44;;;;;;;4.50;3.50;;;;;;;2.03;99.70;96603.63;4337864;32;20189;-67
2023/01/24 00:03:12;;;;;;;5.20;4.87;;;;;;;2.12;99.86;96609.41;4317751;33;20233;-67
2023/01/24 00:05:39;;;;;;;8.20;6.03;;;;;;;2.14;99.82;96603.97;4316016;32;20224;-64
2023/01/24 00:08:04;;;;;;;4.27;3.87;;;;;;;2.16;99.59;96604.56;4323268;33;20294;-64
2023/01/24 00:10:29;;;;;;;4.47;4.27;;;;;;;2.17;99.45;96612.22;4339884;32;20336;-64
2023/01/24 00:12:55;;;;;;;6.37;5.87;;;;;;;2.12;99.60;96614.66;4340045;32;20225;-64
2023/01/24 00:15:20;;;;;;;4.77;4.47;;;;;;;2.20;99.29;96611.00;4343695;32;20275;-64
2023/01/24 00:17:45;;;;;;;6.00;5.60;;;;;;;2.15;99.49;96609.00;4335573;32;20213;-65
2023/01/24 00:20:11;;;;;;;6.33;5.73;;;;;;;2.21;99.44;96625.69;4334982;32;20228;-64
2023/01/24 00:22:36;;;;;;;5.13;4.80;;;;;;;1.99;99.90;96615.53;4332581;32;20185;-65
2023/01/24 00:25:01;;;;;;;4.73;4.47;;;;;;;1.90;100.00;96621.97;4315872;33;22150;-65
2023/01/24 00:27:27;;;;;;;5.50;5.17;;;;;;;2.05;100.00;96612.09;4328599;33;20233;-65
2023/01/24 00:29:52;;;;;;;6.60;6.17;;;;;;;2.10;100.00;96623.72;4328586;33;20201;-65
2023/01/24 00:32:17;;;;;;;6.93;6.23;;;;;;;2.12;100.00;96626.94;4315345;33;20221;-65
2023/01/24 00:34:43;;;;;;;5.97;5.47;;;;;;;2.08;100.00;96617.91;4310449;33;20253;-65
2023/01/24 00:37:08;;;;;;;5.27;4.23;;;;;;;2.01;100.00;96633.63;4330791;33;20193;-65
2023/01/24 00:39:33;;;;;;;6.17;5.30;;;;;;;2.14;100.00;96630.94;4314430;33;20190;-65
2023/01/24 00:41:59;;;;;;;4.53;4.17;;;;;;;2.12;100.00;96621.69;4324512;33;20220;-65
2023/01/24 00:44:24;;;;;;;6.63;5.50;;;;;;;2.05;100.00;96633.00;4314874;33;20193;-65
2023/01/24 00:46:52;;;;;;;6.43;5.83;;;;;;;2.13;100.00;96626.72;4325033;33;20200;-65
2023/01/24 00:49:18;;;;;;;5.73;4.53;;;;;;;2.10;100.00;96621.91;4328060;33;20243;-65
2023/01/24 00:51:44;;;;;;;5.23;4.80;;;;;;;2.14;100.00;96630.94;4324777;33;20290;-65
2023/01/24 00:54:09;;;;;;;4.80;4.43;;;;;;;2.14;100.00;96625.72;4334674;32;20207;-65
2023/01/24 00:56:34;;;;;;;14.70;5.00;;;;;;;2.15;100.00;96624.72;4343148;32;20193;-65
2023/01/24 00:58:59;;;;;;;5.23;4.17;;;;;;;2.24;99.73;96620.06;4329775;32;20206;-65
2023/01/24 01:01:25;;;;;;;5.83;5.33;;;;;;;2.41;99.01;96634.25;4327737;33;20204;-65
2023/01/24 01:03:54;;;;;;;7.50;6.87;;;;;;;2.32;98.99;96632.87;4314823;33;20190;-65
2023/01/24 01:06:20;;;;;;;5.10;4.67;;;;;;;2.37;99.22;96638.31;4314226;33;20198;-65
2023/01/24 01:08:45;;;;;;;5.07;4.63;;;;;;;2.20;99.80;96631.94;4330584;32;20282;-64
2023/01/24 01:11:10;;;;;;;6.07;5.60;;;;;;;2.24;99.90;96631.31;4315307;33;20198;-65
2023/01/24 01:13:36;;;;;;;4.50;4.10;;;;;;;2.14;99.75;96645.84;4313751;33;20195;-65
2023/01/24 01:16:07;;;;;;;4.83;4.53;;;;;;;2.13;100.00;96639.81;4338810;32;20256;-65
2023/01/24 01:18:34;;;;;;;5.30;5.03;;;;;;;2.00;100.00;96643.28;4339615;32;20193;-65
2023/01/24 01:20:59;;;;;;;6.47;5.27;;;;;;;2.11;100.00;96641.84;4330409;33;20282;-64
2023/01/24 01:23:25;;;;;;;4.57;4.30;;;;;;;2.28;100.00;96644.81;4330553;33;20317;-65
2023/01/24 01:25:50;;;;;;;5.87;5.40;;;;;;;2.23;100.00;96647.25;4339258;32;20210;-65
2023/01/24 01:28:15;;;;;;;7.00;6.60;;;;;;;2.20;100.00;96645.03;4343685;32;20194;-65
2023/01/24 01:30:40;;;;;;;6.60;6.10;;;;;;;2.20;100.00;96639.78;4326654;33;20232;-64
2023/01/24 01:33:06;;;;;;;6.63;5.90;;;;;;;2.14;100.00;96646.66;4316693;32;20189;-64
2023/01/24 01:35:31;;;;;;;6.40;5.80;;;;;;;2.17;100.00;96651.47;4335298;32;20186;-64
2023/01/24 01:37:57;;;;;;;7.50;6.93;;;;;;;2.10;100.00;96645.47;4334996;32;20193;-64
2023/01/24 01:40:22;;;;;;;5.07;4.87;;;;;;;1.99;100.00;96644.31;4330127;33;20190;-65
2023/01/24 01:42:53;;;;;;;7.63;6.90;;;;;;;2.03;100.00;96642.06;4330130;33;20224;-65
2023/01/24 01:45:37;;;;;;;7.62;6.95;;;;;;;1.94;100.00;96646.72;4296265;33;20190;-65
2023/01/24 01:48:18;;;;;;;6.37;5.90;;;;;;;1.84;100.00;96640.31;4327764;32;20269;-65
2023/01/24 01:50:50;;;;;;;6.83;6.33;;;;;;;1.89;100.00;96636.06;4337084;32;20198;-65
2023/01/24 01:53:17;;;;;;;5.57;5.07;;;;;;;1.90;100.00;96645.53;4310591;32;20291;-65
2023/01/24 01:55:49;;;;;;;6.40;6.03;;;;;;;2.08;100.00;96641.47;4332141;32;20290;-65
2023/01/24 01:58:17;;;;;;;8.40;7.70;;;;;;;2.13;100.00;96637.19;4340639;32;20309;-64
2023/01/24 02:00:49;;;;;;;6.13;5.63;;;;;;;2.24;100.00;96633.94;4326821;33;20286;-64
2023/01/24 02:06:02;;;;;;;5.27;4.97;;;;;;;2.10;100.00;96639.41;4344162;32;20339;-64
2023/01/24 02:08:29;;;;;;;6.33;5.93;;;;;;;2.12;100.00;96637.41;4339363;32;20337;-64
2023/01/24 02:13:45;;;;;;;7.40;6.83;;;;;;;2.00;100.00;96640.69;4334128;32;20316;-65
2023/01/24 02:16:12;;;;;;;6.87;6.47;;;;;;;2.11;100.00;96643.66;4329317;32;20293;-64
2023/01/24 02:18:39;;;;;;;7.68;7.07;;;;;;;2.08;100.00;96636.22;4336572;32;20357;-64
2023/01/24 02:21:16;;;;;;;7.73;5.70;;;;;;;2.18;100.00;96636.59;4324047;33;20232;-64
2023/01/24 02:23:45;;;;;;;6.80;6.10;;;;;;;2.17;100.00;96634.97;4324049;32;20286;-64
2023/01/24 02:26:22;;;;;;;9.43;8.77;;;;;;;2.15;100.00;96643.03;4331039;32;20316;-64
2023/01/24 02:28:59;;;;;;;8.93;7.17;;;;;;;2.20;100.00;96639.78;4321703;33;20381;-65
2023/01/24 02:31:25;;;;;;;5.03;4.77;;;;;;;2.09;100.00;96641.22;4320178;33;20309;-65
2023/01/24 02:33:50;;;;;;;6.13;5.77;;;;;;;2.13;100.00;96639.81;4335155;32;20369;-65
2023/01/24 02:36:25;;;;;;;7.23;6.57;;;;;;;2.01;100.00;96637.06;4328758;33;20228;-64
2023/01/24 02:38:58;;;;;;;4.83;4.60;;;;;;;2.06;100.00;96634.63;4319039;33;20184;-65
2023/01/24 02:41:30;;;;;;;6.93;6.40;;;;;;;2.08;100.00;96634.38;4339503;32;20361;-64
2023/01/24 02:44:01;;;;;;;6.77;4.47;;;;;;;2.13;100.00;96639.00;4332357;32;20278;-64
2023/01/24 02:46:29;;;;;;;6.78;4.18;;;;;;;1.97;100.00;96638.47;4329430;33;20313;-65
2023/01/24 02:48:54;;;;;;;6.47;5.97;;;;;;;2.03;100.00;96640.28;4315760;33;20197;-65
2023/01/24 02:54:05;;;;;;;5.83;5.53;;;;;;;1.92;100.00;96633.03;4320107;33;20192;-65
2023/01/24 02:59:15;;;;;;;8.73;6.18;;;;;;;1.93;100.00;96634.66;4324268;32;20212;-65
2023/01/24 03:01:40;;;;;;;5.77;5.37;;;;;;;1.99;100.00;96630.41;4321173;33;20214;-65
2023/01/24 03:04:05;;;;;;;10.33;5.47;;;;;;;1.95;100.00;96640.47;4324580;33;20190;-65
2023/01/24 03:06:31;;;;;;;7.37;6.90;;;;;;;1.88;100.00;96631.84;4329164;33;20204;-64
2023/01/24 03:08:56;;;;;;;6.53;6.17;;;;;;;1.93;100.00;96629.41;4315898;33;20186;-65
2023/01/24 03:11:21;;;;;;;9.13;8.20;;;;;;;1.98;100.00;96627.00;4327957;33;20198;-65
2023/01/24 03:35:53;;;;;;;6.57;6.17;;;;;;;2.01;100.00;96650.13;4322137;32;20338;-64
2023/01/24 03:41:05;;;;;;;6.00;5.33;;;;;;;2.08;100.00;96643.03;4330435;32;20292;-65
2023/01/24 03:43:31;;;;;;;7.33;6.63;;;;;;;2.05;100.00;96648.72;4326789;32;20294;-65
2023/01/24 03:45:57;;;;;;;7.77;5.83;;;;;;;2.11;100.00;96651.50;4341976;32;20185;-64
2023/01/24 03:48:26;;;;;;;5.27;4.97;;;;;;;1.98;100.00;96661.00;4330988;32;20308;-64
2023/01/24 03:53:36;;;;;;;16.33;6.23;;;;;;;1.97;100.00;96664.63;4340702;32;20328;-64
2023/01/24 03:56:01;;;;;;;7.40;6.67;;;;;;;2.00;100.00;96672.06;4343236;32;20278;-64
2023/01/24 03:58:30;;;;;;;6.57;6.17;;;;;;;1.92;100.00;96666.25;4329926;32;20186;-64
2023/01/24 04:00:56;;;;;;;6.10;5.47;;;;;;;1.93;100.00;96671.28;4329723;32;20216;-64
2023/01/24 04:03:23;;;;;;;5.30;5.00;;;;;;;1.96;100.00;96667.44;4342847;32;20298;-65
2023/01/24 04:05:49;;;;;;;9.80;9.00;;;;;;;1.92;100.00;96667.06;4341160;32;20337;-63
2023/01/24 04:08:15;;;;;;;8.77;7.87;;;;;;;1.98;100.00;96668.06;4329165;32;20282;-64
2023/01/24 04:10:44;;;;;;;6.67;6.17;;;;;;;1.91;100.00;96670.69;4345016;32;20353;-64
2023/01/24 04:13:10;;;;;;;7.45;6.75;;;;;;;2.03;100.00;96671.66;4343433;32;20308;-64
2023/01/24 04:15:36;;;;;;;6.60;6.10;;;;;;;1.97;100.00;96666.44;4317046;33;20206;-64
2023/01/24 04:18:03;;;;;;;5.67;5.37;;;;;;;1.92;100.00;96667.06;4331576;32;20290;-64
2023/01/24 04:20:31;;;;;;;8.52;7.53;;;;;;;1.95;100.00;96653.56;4343322;32;20228;-64
2023/01/24 04:23:00;;;;;;;5.73;5.33;;;;;;;1.91;100.00;96657.59;4342397;32;20190;-64
2023/01/24 04:25:25;;;;;;;7.07;6.67;;;;;;;1.89;100.00;96662.22;4341365;32;20300;-64
2023/01/24 04:27:51;;;;;;;6.43;5.87;;;;;;;1.83;100.00;96663.06;4339905;32;20298;-64
2023/01/24 04:30:16;;;;;;;7.10;6.60;;;;;;;1.94;100.00;96654.56;4339637;32;20244;-64
2023/01/24 04:32:43;;;;;;;4.87;4.57;;;;;;;1.87;100.00;96659.00;4327340;33;20186;-64
2023/01/24 04:35:14;;;;;;;3.33;2.97;;;;;;;1.94;100.00;96659.81;4334345;32;20193;-64
2023/01/24 04:37:40;;;;;;;6.10;5.70;;;;;;;1.85;100.00;96655.81;4342087;32;20357;-64
2023/01/24 04:40:06;;;;;;;5.53;4.93;;;;;;;1.82;100.00;96663.28;4327813;32;20203;-64
2023/01/24 04:42:31;;;;;;;6.12;4.18;;;;;;;1.80;100.00;96665.28;4341223;32;20186;-64
2023/01/24 04:44:56;;;;;;;4.90;4.60;;;;;;;1.83;100.00;96670.91;4337248;32;20257;-64
2023/01/24 04:47:24;;;;;;;7.17;6.53;;;;;;;1.90;100.00;96665.66;4339443;32;20193;-64
2023/01/24 04:49:52;;;;;;;6.00;5.60;;;;;;;1.90;100.00;96665.66;4327289;32;20285;-64
2023/01/24 04:52:17;;;;;;;5.95;5.53;;;;;;;1.82;100.00;96663.28;4330009;32;20260;-65
2023/01/24 04:54:43;;;;;;;7.20;6.70;;;;;;;1.95;100.00;96663.22;4345796;32;20193;-65
2023/01/24 04:57:11;;;;;;;5.27;4.93;;;;;;;1.97;100.00;96662.00;4344733;32;20185;-65
2023/01/24 04:59:36;;;;;;;7.63;7.03;;;;;;;2.04;100.00;96662.81;4331075;32;20198;-64
2023/01/24 05:02:01;;;;;;;5.33;4.67;;;;;;;2.03;100.00;96666.44;4330028;32;20281;-64
2023/01/24 05:04:27;;;;;;;6.20;5.87;;;;;;;1.98;100.00;96657.59;4342340;32;20247;-64
2023/01/24 05:06:52;;;;;;;6.70;6.30;;;;;;;2.01;100.00;96659.78;4342316;32;20196;-64
2023/01/24 05:09:17;;;;;;;5.70;5.30;;;;;;;2.07;100.00;96664.22;4329415;32;20233;-65
2023/01/24 05:11:43;;;;;;;3.63;3.33;;;;;;;2.04;100.00;96668.03;4345344;32;20198;-64
2023/01/24 05:14:09;;;;;;;8.97;5.90;;;;;;;2.04;100.00;96662.81;4343334;32;20232;-64
2023/01/24 05:16:35;;;;;;;6.30;5.90;;;;;;;1.99;100.00;96665.22;4342134;32;20198;-65
2023/01/24 05:19:01;;;;;;;5.63;4.57;;;;;;;2.08;100.00;96671.84;4330421;32;20213;-65
2023/01/24 05:21:26;;;;;;;5.03;4.77;;;;;;;2.09;100.00;96664.78;4342882;32;20285;-65
2023/01/24 05:23:52;;;;;;;5.93;5.17;;;;;;;2.12;100.00;96666.19;4345557;32;20239;-65
2023/01/24 05:26:19;;;;;;;6.73;5.73;;;;;;;2.18;100.00;96675.84;4341474;32;20182;-65
2023/01/24 05:28:45;;;;;;;5.20;4.97;;;;;;;2.18;100.00;96673.22;4343746;32;20356;-65
2023/01/24 05:31:10;;;;;;;5.10;4.27;;;;;;;2.33;100.00;96679.00;4347277;32;20300;-64
2023/01/24 05:33:36;;;;;;;5.33;4.93;;;;;;;2.31;100.00;96663.50;4344951;32;20194;-65
2023/01/24 05:36:05;;;;;;;7.20;6.63;;;;;;;2.39;100.00;96676.38;4344210;32;20244;-65
2023/01/24 05:38:33;;;;;;;5.20;4.83;;;;;;;2.42;100.00;96683.00;4345769;32;20200;-65
2023/01/24 05:41:01;;;;;;;14.10;6.73;;;;;;;2.47;100.00;96685.81;4345290;32;20316;-65
2023/01/24 05:43:28;;;;;;;4.90;4.63;;;;;;;2.52;100.00;96674.69;4332212;32;20317;-65
2023/01/24 05:46:01;;;;;;;7.17;6.50;;;;;;;2.49;100.00;96675.94;4331690;32;20290;-65
2023/01/24 05:48:27;;;;;;;6.23;5.87;;;;;;;2.58;100.00;96690.38;4313729;32;20285;-65
2023/01/24 05:51:00;;;;;;;4.87;4.43;;;;;;;2.66;100.00;96689.34;4355268;32;20289;-65
2023/01/24 05:53:27;;;;;;;8.57;5.20;;;;;;;2.65;100.00;96690.34;4344284;32;20282;-65
2023/01/24 05:56:00;;;;;;;6.40;5.90;;;;;;;2.73;100.00;96690.09;4331626;32;20320;-65
2023/01/24 05:58:27;;;;;;;4.43;4.13;;;;;;;2.65;100.00;96696.41;4331977;32;20364;-65
2023/01/24 06:00:53;;;;;;;6.83;6.23;;;;;;;2.55;100.00;96693.41;4345117;32;20324;-64
2023/01/24 06:03:19;;;;;;;7.33;6.63;;;;;;;2.63;100.00;96702.84;4337890;32;20383;-65
2023/01/24 06:05:49;;;;;;;8.83;6.80;;;;;;;2.69;99.96;96696.78;4325477;32;20189;-66
2023/01/24 06:08:31;;;;;;;6.63;6.13;;;;;;;2.67;99.61;96707.47;4329069;32;20321;-65
2023/01/24 06:11:09;;;;;;;5.97;5.57;;;;;;;2.67;99.87;96699.63;4329253;32;20286;-65
2023/01/24 06:13:34;;;;;;;7.57;5.23;;;;;;;2.60;100.00;96704.06;4344414;32;20285;-65
2023/01/24 06:16:05;;;;;;;6.13;5.43;;;;;;;2.64;100.00;96702.66;4341815;32;20328;-65
2023/01/24 06:18:31;;;;;;;8.03;5.63;;;;;;;2.59;100.00;96702.47;4324982;32;20286;-65
2023/01/24 06:20:57;;;;;;;7.27;6.77;;;;;;;2.45;100.00;96706.16;4330513;32;20333;-65
2023/01/24 06:23:26;;;;;;;7.40;6.63;;;;;;;2.52;100.00;96706.13;4330522;32;20198;-65
2023/01/24 06:25:52;;;;;;;7.30;6.80;;;;;;;2.51;100.00;96710.53;4330805;32;20201;-65
2023/01/24 06:28:20;;;;;;;6.83;6.43;;;;;;;2.59;100.00;96707.69;4343569;32;20282;-65
2023/01/24 06:30:56;;;;;;;5.87;5.37;;;;;;;2.44;100.00;96711.59;4331229;32;20293;-65
2023/01/24 06:33:30;;;;;;;6.20;5.80;;;;;;;2.40;100.00;96719.88;4342991;32;20285;-65
2023/01/24 06:36:27;;;;;;;8.13;7.03;;;;;;;2.45;100.00;96719.25;4338582;32;20336;-65
2023/01/24 06:38:53;;;;;;;6.27;5.77;;;;;;;2.49;100.00;96724.88;4344149;32;20290;-65
2023/01/24 06:41:18;;;;;;;7.00;6.27;;;;;;;2.42;100.00;96730.13;4329266;32;20290;-65
2023/01/24 06:43:44;;;;;;;9.80;6.53;;;;;;;2.27;100.00;96729.59;4329696;32;20219;-67
2023/01/24 06:46:11;;;;;;;5.97;5.57;;;;;;;2.32;100.00;96737.59;4331447;32;20212;-64
2023/01/24 06:48:44;;;;;;;11.93;6.83;;;;;;;2.23;100.00;96741.47;4344272;32;20198;-65
2023/01/24 06:51:13;;;;;;;6.33;5.83;;;;;;;2.26;100.00;96736.63;4344500;32;20301;-65
2023/01/24 06:53:38;;;;;;;6.83;5.53;;;;;;;2.23;100.00;96737.03;4344208;32;20281;-59
2023/01/24 06:56:03;;;;;;;7.47;6.73;;;;;;;3.94;100.00;96729.19;4330243;32;20376;-59
2023/01/24 06:58:29;;;;;;;4.63;4.27;;;;;;;5.21;100.00;96736.16;4342898;32;20233;-60
2023/01/24 07:00:54;;;;;;;6.43;5.93;;;;;;;6.19;100.00;96736.44;4335808;32;20225;-59
2023/01/24 07:03:19;;;;;;;5.50;5.03;;;;;;;6.64;96.72;96737.66;4341806;32;20232;-60
2023/01/24 07:05:45;;;;;;;5.10;4.77;;;;;;;7.29;88.35;96735.44;4328814;32;20185;-59
2023/01/24 07:08:13;;;;;;;5.97;5.47;;;;;;;7.46;82.21;96743.41;4345383;32;20190;-59
2023/01/24 07:10:41;;;;;;;10.00;9.07;;;;;;;8.51;92.15;96732.09;4328283;33;20228;-56
2023/01/24 07:13:07;;;;;;;7.33;5.80;;;;;;;8.75;85.47;96736.06;4321015;33;20293;-58
2023/01/24 07:15:33;;;;;;;6.97;5.73;;;;;;;9.27;86.85;96732.97;4340529;32;20301;-58
2023/01/24 07:18:05;;;;;;;5.80;5.50;;;;;;;9.21;79.16;96737.38;4332558;32;20252;-58
2023/01/24 07:20:30;;;;;;;7.83;7.13;;;;;;;9.46;77.29;96736.03;4333897;32;20194;-58
2023/01/24 07:22:56;;;;;;;7.57;6.73;;;;;;;9.41;73.51;96742.09;4321633;32;20234;-58
2023/01/24 07:25:24;;;;;;;9.43;8.13;;;;;;;9.73;71.91;96749.28;4344285;32;20233;-56
2023/01/24 07:27:50;;;;;;;10.67;7.60;;;;;;;9.59;70.49;96752.31;4327480;33;20194;-65
2023/01/24 07:30:15;;;;;;;7.50;6.97;;;;;;;8.31;69.61;96753.72;4335002;32;20195;-65
2023/01/24 07:32:41;;;;;;;8.17;7.33;;;;;;;7.42;72.97;96760.75;4343988;32;20221;-65
2023/01/24 07:35:07;;;;;;;5.37;5.07;;;;;;;5.73;80.05;96773.25;4329116;32;20219;-65
2023/01/24 07:37:32;;;;;;;7.37;6.80;;;;;;;5.05;83.62;96770.97;4340557;32;20197;-65
2023/01/24 07:39:58;;;;;;;6.83;6.13;;;;;;;4.44;87.66;96772.69;4343496;32;20299;-65
2023/01/24 07:42:24;;;;;;;6.43;5.37;;;;;;;3.83;90.73;96780.53;4343398;32;20205;-65
2023/01/24 07:44:49;;;;;;;7.30;5.53;;;;;;;3.65;92.23;96777.84;4343762;32;20245;-66
2023/01/24 07:47:14;;;;;;;4.20;3.90;;;;;;;3.46;93.64;96776.97;4327231;33;20190;-66
2023/01/24 07:49:39;;;;;;;4.63;4.33;;;;;;;3.31;94.12;96779.09;4329301;32;20242;-65
2023/01/24 07:52:05;;;;;;;6.97;6.37;;;;;;;3.18;95.29;96777.34;4340981;32;20232;-65
2023/01/24 07:54:30;;;;;;;5.93;5.53;;;;;;;3.09;96.09;96781.25;4329991;32;20177;-65
2023/01/24 07:56:56;;;;;;;5.17;4.77;;;;;;;3.11;96.66;96784.47;4343157;32;20211;-63
2023/01/24 07:59:21;;;;;;;6.23;5.73;;;;;;;2.90;97.28;96782.94;4330038;32;20205;-62
2023/01/24 08:01:46;;;;;;;5.57;5.07;;;;;;;3.04;97.02;96784.50;4328911;32;20284;-63
2023/01/24 08:04:12;;;;;;;6.40;5.97;;;;;;;2.64;98.11;96796.94;4345300;32;20200;-63
2023/01/24 08:06:39;;;;;;;6.10;5.70;;;;;;;2.80;98.57;96792.25;4343672;32;20186;-63
2023/01/24 08:09:04;;;;;;;6.63;6.13;;;;;;;2.76;98.75;96792.66;4327536;33;20292;-64
2023/01/24 08:11:30;;;;;;;7.33;6.30;;;;;;;2.95;98.61;96795.41;4336350;32;20277;-64
2023/01/24 08:13:55;;;;;;;7.97;6.83;;;;;;;2.93;98.31;96806.09;4344324;32;20193;-64
2023/01/24 08:16:23;;;;;;;5.60;5.13;;;;;;;2.97;98.02;96802.06;4343759;32;20189;-63
2023/01/24 08:18:49;;;;;;;5.17;4.77;;;;;;;2.72;98.50;96807.19;4319215;33;20261;-63
2023/01/24 08:21:14;;;;;;;4.70;4.40;;;;;;;2.73;98.86;96806.16;4328303;33;20286;-65
2023/01/24 08:23:39;;;;;;;6.20;5.80;;;;;;;2.67;99.15;96807.00;4337465;32;20205;-64
2023/01/24 08:26:06;;;;;;;5.17;4.93;;;;;;;2.50;99.90;96805.84;4316206;33;20194;-62
2023/01/24 08:28:32;;;;;;;7.23;6.53;;;;;;;2.67;100.00;96804.41;4315075;33;20264;-62
2023/01/24 08:30:58;;;;;;;5.10;4.73;;;;;;;2.49;100.00;96809.50;4327252;33;20294;-62
2023/01/24 08:33:25;;;;;;;6.50;6.00;;;;;;;2.56;100.00;96807.63;4328379;33;20343;-62
2023/01/24 08:35:50;;;;;;;6.83;6.30;;;;;;;2.61;100.00;96799.97;4314999;33;20198;-64
2023/01/24 08:38:16;;;;;;;5.57;5.17;;;;;;;2.61;100.00;96807.84;4331352;32;20285;-65
2023/01/24 08:40:42;;;;;;;7.47;6.87;;;;;;;2.79;100.00;96806.34;4336325;32;20190;-64
2023/01/24 08:43:08;;;;;;;11.03;6.17;;;;;;;2.81;99.91;96806.97;4318108;33;20189;-64
2023/01/24 08:45:34;;;;;;;6.73;6.30;;;;;;;2.79;99.68;96807.16;4327305;33;20408;-64
2023/01/24 08:47:59;;;;;;;5.57;5.27;;;;;;;2.86;99.50;96807.16;4327920;33;20280;-65
2023/01/24 08:50:25;;;;;;;7.77;7.07;;;;;;;3.06;99.94;96816.53;4315163;33;20190;-66
2023/01/24 08:52:55;;;;;;;6.20;5.40;;;;;;;3.05;98.33;96816.75;4315788;33;20197;-65
2023/01/24 08:55:21;;;;;;;7.60;5.97;;;;;;;3.17;98.08;96820.31;4313819;33;20257;-65
2023/01/24 08:57:46;;;;;;;8.40;4.27;;;;;;;3.08;97.97;96824.19;4319186;33;20286;-65
2023/01/24 09:00:12;;;;;;;5.27;4.93;;;;;;;3.11;98.00;96823.78;4328553;33;20245;-65
2023/01/24 09:02:38;;;;;;;5.47;5.00;;;;;;;3.29;97.72;96821.28;4311705;33;20233;-65
2023/01/24 09:05:07;;;;;;;7.80;7.07;;;;;;;3.29;97.28;96820.47;4314925;33;20432;-65
2023/01/24 09:07:36;;;;;;;5.83;5.37;;;;;;;3.35;97.06;96827.47;4327853;33;20205;-65
2023/01/24 09:10:02;;;;;;;3.17;2.97;;;;;;;3.45;96.53;96820.78;4330289;33;20286;-68
2023/01/24 09:12:27;;;;;;;3.77;2.43;;;;;;;3.39;96.32;96821.59;4311249;33;20304;-66
2023/01/24 09:14:52;;;;;;;7.83;4.97;;;;;;;3.47;96.34;96822.37;4327202;33;20302;-66
2023/01/24 09:17:18;;;;;;;6.70;4.20;;;;;;;3.50;95.94;96825.38;4314420;32;20198;-65
2023/01/24 09:19:43;;;;;;;4.57;4.27;;;;;;;3.44;96.11;96827.03;4328723;33;20200;-65
2023/01/24 09:22:08;;;;;;;4.30;3.73;;;;;;;3.53;95.76;96829.41;4326098;32;20201;-65
2023/01/24 09:24:34;;;;;;;4.37;3.97;;;;;;;3.54;96.16;96833.62;4318179;32;20261;-65
2023/01/24 09:26:59;;;;;;;8.40;5.30;;;;;;;3.56;95.79;96839.47;4327562;32;20225;-65
2023/01/24 09:29:24;;;;;;;4.13;3.83;;;;;;;3.64;95.49;96845.28;4314014;33;20209;-66
2023/01/24 09:31:50;;;;;;;9.77;7.80;;;;;;;3.64;95.56;96841.84;4318747;32;20210;-65
2023/01/24 09:34:16;;;;;;;7.90;7.10;;;;;;;3.60;95.30;96844.09;4317626;32;20186;-66
2023/01/24 09:36:41;;;;;;;5.00;4.70;;;;;;;3.57;95.49;96847.13;4329191;32;20216;-66
2023/01/24 09:39:07;;;;;;;5.23;4.80;;;;;;;3.75;94.65;96851.66;4329703;32;20205;-65
2023/01/24 09:41:57;;;;;;;11.33;10.17;;;;;;;3.69;94.14;96849.88;4340499;32;20206;-65
2023/01/24 09:44:37;;;;;;;11.93;10.27;;;;;;;3.61;94.86;96852.75;4330650;32;20186;-66
2023/01/24 09:47:15;;;;;;;6.77;6.27;;;;;;;3.66;94.70;96851.13;4334344;32;20289;-65
2023/01/24 09:49:47;;;;;;;5.70;5.27;;;;;;;3.72;94.18;96852.09;4329518;33;20286;-65
2023/01/24 09:52:26;;;;;;;4.57;4.27;;;;;;;3.64;94.02;96847.09;4342023;32;20325;-66
2023/01/24 09:58:32;;;;;;;5.60;5.20;;;;;;;3.48;95.03;96848.41;4329124;32;20328;-66
2023/01/24 10:01:10;;;;;;;7.77;6.10;;;;;;;3.72;94.66;96846.84;4319859;32;20301;-66
2023/01/24 10:03:37;;;;;;;7.03;5.33;;;;;;;3.78;93.79;96845.97;4326940;32;20282;-66
2023/01/24 10:06:25;;;;;;;4.97;4.63;;;;;;;3.95;93.23;96851.53;4328415;32;20301;-66
2023/01/24 10:09:08;;;;;;;3.87;3.67;;;;;;;4.11;92.85;96848.38;4323669;33;20329;-66
2023/01/24 10:11:57;;;;;;;5.47;5.07;;;;;;;4.03;92.45;96849.44;4322662;32;20289;-66
2023/01/24 10:14:54;;;;;;;4.50;4.20;;;;;;;4.02;92.25;96844.41;4320364;32;20357;-66
2023/01/24 10:17:58;;;;;;;5.17;4.63;;;;;;;4.01;92.40;96848.03;4331898;32;20333;-66
2023/01/24 10:20:51;;;;;;;3.97;3.67;;;;;;;4.35;91.78;96854.66;4274747;33;20301;-66
2023/01/24 10:23:31;;;;;;;6.13;4.60;;;;;;;4.21;91.59;96846.06;4320540;33;20348;-66
2023/01/24 10:26:09;;;;;;;5.33;5.03;;;;;;;3.99;92.14;96856.13;4316453;33;20311;-66
2023/01/24 10:28:38;;;;;;;4.53;4.23;;;;;;;3.92;92.71;96850.12;4316347;33;20395;-66
2023/01/24 10:31:14;;;;;;;16.17;5.50;;;;;;;3.90;92.56;96851.38;4316147;33;20294;-66
2023/01/24 10:33:48;;;;;;;5.70;3.67;;;;;;;3.72;93.52;96854.72;4328876;33;20338;-66
2023/01/24 10:36:38;;;;;;;4.33;4.10;;;;;;;3.58;94.22;96853.16;4313551;33;20298;-66
2023/01/24 10:39:04;;;;;;;5.90;4.37;;;;;;;3.73;94.14;96856.31;4311246;33;20282;-66
2023/01/24 10:41:31;;;;;;;4.30;3.90;;;;;;;3.91;93.91;96851.16;4329752;33;20377;-66
2023/01/24 10:44:05;;;;;;;6.90;6.13;;;;;;;4.12;92.89;96850.78;4329905;32;20283;-66
2023/01/24 10:46:48;;;;;;;5.00;4.80;;;;;;;3.99;92.33;96850.88;4316632;32;20294;-67
2023/01/24 10:49:27;;;;;;;4.27;3.90;;;;;;;3.88;92.67;96851.56;4314428;33;20286;-67
2023/01/24 10:52:13;;;;;;;5.93;5.53;;;;;;;3.84;93.29;96845.13;4330179;32;20291;-66
2023/01/24 10:54:46;;;;;;;4.20;3.90;;;;;;;3.73;93.75;96853.72;4313770;33;20323;-66
2023/01/24 10:57:34;;;;;;;4.00;3.70;;;;;;;3.66;94.28;96845.06;4316526;32;20349;-66
2023/01/24 11:00:14;;;;;;;5.07;4.63;;;;;;;3.63;94.00;96841.03;4311496;33;20290;-66
2023/01/24 11:02:39;;;;;;;4.53;4.13;;;;;;;3.38;95.21;96840.16;4326981;33;20301;-66
2023/01/24 11:05:06;;;;;;;3.60;3.40;;;;;;;3.30;95.91;96830.75;4319526;33;20283;-67
2023/01/24 11:07:38;;;;;;;4.67;4.23;;;;;;;3.24;96.46;96839.44;4331250;32;20193;-66
2023/01/24 11:10:25;;;;;;;5.33;4.70;;;;;;;3.12;97.34;96834.03;4294672;33;20385;-66
2023/01/24 11:12:58;;;;;;;4.30;3.93;;;;;;;3.37;96.55;96830.69;4317011;32;20317;-67
2023/01/24 11:15:30;;;;;;;5.93;5.37;;;;;;;3.48;96.02;96829.22;4328015;33;20321;-66
2023/01/24 11:17:58;;;;;;;7.80;5.83;;;;;;;3.55;95.40;96822.91;4321567;32;20412;-66
2023/01/24 11:20:33;;;;;;;4.83;4.53;;;;;;;3.69;95.13;96824.47;4327936;32;20290;-67
2023/01/24 11:23:18;;;;;;;4.47;4.20;;;;;;;3.78;94.81;96827.59;4321246;32;20282;-66
2023/01/24 11:26:01;;;;;;;4.53;4.13;;;;;;;3.73;94.79;96824.84;4339785;32;20317;-67
2023/01/24 11:28:29;;;;;;;3.40;3.20;;;;;;;3.59;94.46;96820.69;4325310;32;20286;-66
2023/01/24 11:30:58;;;;;;;4.80;4.50;;;;;;;3.37;95.12;96821.00;4320430;32;20286;-67
2023/01/24 11:33:52;;;;;;;4.53;4.23;;;;;;;3.31;96.14;96819.25;4328559;32;20282;-67
2023/01/24 11:36:33;;;;;;;6.53;5.93;;;;;;;3.25;96.23;96817.47;4327455;32;20321;-68
2023/01/24 11:39:07;;;;;;;5.97;5.60;;;;;;;3.43;96.08;96817.56;4324814;33;20322;-65
2023/01/24 11:41:53;;;;;;;4.53;3.80;;;;;;;3.31;96.32;96816.63;4312482;33;20286;-66
2023/01/24 11:44:40;;;;;;;8.07;4.37;;;;;;;3.42;96.35;96815.94;4317547;32;20290;-67
2023/01/24 11:47:15;;;;;;;4.37;4.07;;;;;;;3.44;95.80;96803.41;4325016;32;20358;-66
2023/01/24 11:49:49;;;;;;;3.60;3.50;;;;;;;3.36;96.24;96808.91;4321165;32;20286;-66
2023/01/24 11:52:42;;;;;;;3.83;3.63;;;;;;;3.30;96.38;96804.53;4337967;32;20339;-67
2023/01/24 11:55:14;;;;;;;3.90;2.97;;;;;;;3.45;95.73;96809.47;4318018;32;20301;-66
2023/01/24 11:57:51;;;;;;;6.97;3.87;;;;;;;3.54;95.84;96810.81;4328665;32;20286;-66
2023/01/24 12:00:37;;;;;;;4.87;4.47;;;;;;;3.52;95.12;96812.88;4325386;32;20341;-66
2023/01/24 12:03:27;;;;;;;4.17;3.97;;;;;;;3.36;95.86;96808.91;4327532;32;20274;-66
2023/01/24 12:06:00;;;;;;;4.43;4.23;;;;;;;3.21;96.59;96799.72;4316004;32;20275;-66
2023/01/24 12:08:36;;;;;;;6.53;4.67;;;;;;;3.31;96.21;96806.13;4328161;32;20297;-66
2023/01/24 12:11:19;;;;;;;3.73;3.63;;;;;;;3.29;96.66;96802.91;4316478;32;20290;-66
2023/01/24 12:13:55;;;;;;;4.10;3.90;;;;;;;3.43;96.15;96804.44;4315518;32;21241;-66
2023/01/24 12:16:55;;;;;;;3.23;2.93;;;;;;;3.43;96.34;96801.81;4334496;32;20286;-66
2023/01/24 12:19:54;;;;;;;4.67;4.27;;;;;;;3.30;96.02;96801.09;4333601;32;20290;-66
2023/01/24 12:22:23;;;;;;;3.53;3.23;;;;;;;3.31;96.31;96794.84;4326302;32;20285;-66
2023/01/24 12:25:31;;;;;;;4.70;4.40;;;;;;;3.24;96.26;96796.69;4345008;32;20345;-66
2023/01/24 12:27:59;;;;;;;5.07;4.77;;;;;;;3.18;97.00;96795.69;4324639;32;20321;-67
2023/01/24 12:30:51;;;;;;;3.90;3.70;;;;;;;3.24;96.78;96794.06;4316282;32;20290;-67